Time;durP1;ratioP1;P1;durP2;ratioP2;P2;SDS_P1;SDS_P2;PMS_P1;PMS_P2;Temp;Humidity;BMP_temperature;BMP_pressure;BME280_temperature;BME280_humidity;BME280_pressure;Samples;Min_cycle;Max_cycle;Signal;HPM_P1;HPM_P2
2021/05/26 00:01:30;;;;;;;5.25;1.60;;;;;;;12.74;51.92;100436.44;4444166;32;33911;-89
2021/05/26 00:03:59;;;;;;;3.08;1.62;;;;;;;12.73;51.98;100447.75;4470845;32;33288;-89
2021/05/26 00:06:27;;;;;;;3.20;1.83;;;;;;;12.57;52.73;100435.56;4431307;32;33588;-89
2021/05/26 00:08:54;;;;;;;9.20;2.10;;;;;;;12.29;53.83;100432.88;4443933;32;34886;-89
2021/05/26 00:11:39;;;;;;;3.03;1.95;;;;;;;12.21;54.24;100430.25;4447641;32;34167;-89
2021/05/26 00:14:07;;;;;;;6.35;1.80;;;;;;;12.39;54.08;100430.28;4443509;32;32500;-89
2021/05/26 00:16:49;;;;;;;4.53;1.83;;;;;;;12.33;54.36;100432.03;4445134;32;34165;-90
2021/05/26 00:19:17;;;;;;;6.82;2.37;;;;;;;12.44;54.30;100441.59;4443792;32;35777;-91
2021/05/26 00:21:45;;;;;;;3.62;1.87;;;;;;;12.39;54.21;100434.63;4443613;32;34121;-89
2021/05/26 00:24:13;;;;;;;5.62;2.17;;;;;;;12.51;53.93;100432.94;4443722;32;33098;-89
2021/05/26 00:26:40;;;;;;;2.58;1.40;;;;;;;12.21;54.54;100432.88;4431009;32;34392;-90
2021/05/26 00:29:09;;;;;;;3.58;1.90;;;;;;;12.47;53.73;100423.37;4443819;32;35177;-90
2021/05/26 00:31:37;;;;;;;4.37;1.50;;;;;;;12.42;53.94;100421.59;4430860;32;33389;-90
2021/05/26 00:34:04;;;;;;;3.65;1.80;;;;;;;12.35;54.36;100418.12;4431095;32;33043;-89
2021/05/26 00:36:33;;;;;;;3.47;1.60;;;;;;;12.29;54.39;100412.88;4443388;32;33504;-89
2021/05/26 00:39:00;;;;;;;2.45;1.45;;;;;;;12.24;54.69;100414.62;4457517;32;34493;-89
2021/05/26 00:41:29;;;;;;;2.62;1.85;;;;;;;12.24;54.55;100420.69;4445462;32;32986;-89
2021/05/26 00:43:58;;;;;;;5.35;1.67;;;;;;;12.16;54.52;100422.41;4445868;32;33281;-90
2021/05/26 00:46:27;;;;;;;3.30;1.60;;;;;;;12.15;54.36;100418.06;4432901;32;32890;-89
2021/05/26 00:48:54;;;;;;;4.05;1.85;;;;;;;11.97;54.73;100415.41;4472350;32;34385;-89
2021/05/26 00:51:22;;;;;;;3.92;1.42;;;;;;;11.92;54.98;100414.50;4445581;32;33566;-90
2021/05/26 00:53:50;;;;;;;5.18;1.67;;;;;;;12.02;54.60;100408.47;4458456;32;34843;-89
2021/05/26 00:56:18;;;;;;;3.40;1.37;;;;;;;12.02;54.49;100408.47;4432482;32;34593;-90
2021/05/26 00:58:47;;;;;;;2.47;1.30;;;;;;;12.12;54.01;100406.75;4445629;32;34807;-90
2021/05/26 01:01:15;;;;;;;4.62;1.37;;;;;;;12.12;53.81;100398.94;4445370;32;34583;-90
2021/05/26 01:03:42;;;;;;;2.97;1.35;;;;;;;12.01;54.41;100392.78;4445289;32;33253;-89
2021/05/26 01:06:10;;;;;;;4.32;1.08;;;;;;;12.11;54.00;100397.19;4432590;32;33610;-89
2021/05/26 01:08:39;;;;;;;2.62;1.25;;;;;;;12.22;53.74;100393.72;4445237;32;33962;-90
2021/05/26 01:11:09;;;;;;;2.33;0.93;;;;;;;12.29;53.67;100396.37;4445847;32;33942;-89
2021/05/26 01:13:38;;;;;;;5.07;1.17;;;;;;;12.36;53.52;100393.75;4445264;32;33325;-89
2021/05/26 01:16:05;;;;;;;2.22;1.02;;;;;;;12.44;53.49;100397.25;4445351;32;34155;-90
2021/05/26 01:18:36;;;;;;;2.80;0.95;;;;;;;12.29;53.56;100392.00;4445345;32;34494;-90
2021/05/26 01:21:07;;;;;;;2.75;1.17;;;;;;;12.42;53.09;100388.56;4445529;32;34073;-89
2021/05/26 01:23:36;;;;;;;2.37;1.17;;;;;;;12.44;53.18;100392.03;4445013;32;32381;-89
2021/05/26 01:26:06;;;;;;;4.18;1.25;;;;;;;12.49;53.01;100389.44;4445293;32;33955;-89
2021/05/26 01:28:37;;;;;;;3.03;1.35;;;;;;;12.25;53.55;100379.84;4445247;32;34342;-90
2021/05/26 01:31:06;;;;;;;2.80;1.02;;;;;;;12.33;53.41;100388.56;4445525;32;33947;-90
2021/05/26 01:33:33;;;;;;;2.70;1.40;;;;;;;12.20;54.16;100385.03;4458081;32;33645;-89
2021/05/26 01:36:03;;;;;;;2.17;1.20;;;;;;;12.17;53.99;100399.81;4445428;32;33247;-90
2021/05/26 01:38:31;;;;;;;2.30;1.20;;;;;;;12.05;54.24;100405.84;4457974;32;35678;-89
2021/05/26 01:41:03;;;;;;;3.92;1.33;;;;;;;12.00;54.15;100406.72;4445345;32;33863;-90
2021/05/26 01:43:34;;;;;;;2.33;1.12;;;;;;;11.94;54.32;100409.28;4446004;32;33130;-90
2021/05/26 01:46:03;;;;;;;4.35;1.33;;;;;;;12.07;54.32;100411.09;4432421;32;33367;-90
2021/05/26 01:48:33;;;;;;;2.65;1.35;;;;;;;12.00;54.21;100406.72;4445921;32;35638;-90
2021/05/26 01:51:02;;;;;;;2.28;1.30;;;;;;;12.08;53.84;100416.28;4444351;32;32689;-90
2021/05/26 01:53:32;;;;;;;3.12;1.25;;;;;;;11.98;54.42;100417.13;4444778;32;33498;-90
2021/05/26 01:56:01;;;;;;;1.70;1.20;;;;;;;11.97;54.44;100414.50;4445282;32;33973;-90
2021/05/26 01:58:33;;;;;;;2.87;1.27;;;;;;;11.86;54.48;100419.66;4445951;32;35237;-90
2021/05/26 02:01:02;;;;;;;1.77;1.08;;;;;;;11.88;54.69;100419.69;4445496;32;35144;-90
2021/05/26 02:03:30;;;;;;;3.03;1.20;;;;;;;11.78;54.91;100418.78;4445556;32;33279;-90
2021/05/26 02:05:58;;;;;;;2.58;1.30;;;;;;;11.52;55.58;100415.12;4444847;32;35137;-90
2021/05/26 02:08:27;;;;;;;2.25;1.20;;;;;;;11.78;55.09;100420.50;4457645;32;34977;-90
2021/05/26 02:13:41;;;;;;;2.47;1.23;;;;;;;11.71;55.00;100429.16;4447018;32;32716;-90
2021/05/26 02:16:10;;;;;;;4.43;1.30;;;;;;;11.49;55.61;100420.31;4445180;32;33509;-90
2021/05/26 02:18:38;;;;;;;2.78;1.20;;;;;;;11.57;55.51;100423.84;4432038;32;33942;-90
2021/05/26 02:21:06;;;;;;;1.98;0.95;;;;;;;11.51;55.57;100422.06;4431900;32;33344;-90
2021/05/26 02:23:34;;;;;;;3.67;0.90;;;;;;;11.43;56.04;100423.75;4457623;32;33324;-90
2021/05/26 02:26:03;;;;;;;3.50;1.33;;;;;;;11.42;55.91;100435.06;4445171;32;33857;-90
2021/05/26 02:28:31;;;;;;;4.40;1.95;;;;;;;11.40;56.05;100430.69;4444708;32;33835;-90
2021/05/26 02:31:00;;;;;;;2.83;1.08;;;;;;;11.28;56.22;100431.50;4419908;32;33789;-90
2021/05/26 02:33:29;;;;;;;2.67;1.05;;;;;;;11.33;56.34;100434.13;4444447;32;32993;-90
2021/05/26 02:35:57;;;;;;;3.80;1.12;;;;;;;11.25;56.21;100430.56;4431897;32;33405;-90
2021/05/26 02:38:25;;;;;;;2.12;1.23;;;;;;;11.13;56.55;100430.47;4431843;32;34753;-90
2021/05/26 02:40:54;;;;;;;2.05;0.82;;;;;;;11.16;56.50;100428.78;4444963;32;33622;-90
2021/05/26 02:43:22;;;;;;;1.95;1.00;;;;;;;11.26;56.43;100428.00;4444538;32;32466;-90
2021/05/26 02:45:50;;;;;;;2.58;1.20;;;;;;;11.08;56.48;100427.84;4444941;32;34448;-90
2021/05/26 02:48:19;;;;;;;3.08;1.12;;;;;;;11.15;56.51;100429.63;4445173;32;34479;-90
2021/05/26 02:50:48;;;;;;;3.30;1.10;;;;;;;11.12;56.48;100436.56;4444551;32;33432;-90
2021/05/26 02:53:16;;;;;;;2.50;1.10;;;;;;;11.05;56.56;100443.47;4432224;32;32363;-90
2021/05/26 02:55:44;;;;;;;2.62;0.90;;;;;;;11.18;56.63;100447.00;4444977;32;33811;-90
2021/05/26 02:58:14;;;;;;;5.65;2.55;;;;;;;11.04;56.71;100449.53;4431862;32;35073;-90
2021/05/26 03:00:44;;;;;;;1.58;0.90;;;;;;;10.96;56.87;100453.78;4432551;32;34384;-90
2021/05/26 03:03:12;;;;;;;2.70;0.98;;;;;;;10.80;57.24;100454.50;4443701;32;33283;-90
2021/05/26 03:05:40;;;;;;;3.45;1.20;;;;;;;10.69;57.50;100454.44;4431855;32;33384;-90
2021/05/26 03:08:09;;;;;;;4.93;1.40;;;;;;;10.77;57.27;100460.56;4432228;32;33671;-90
2021/05/26 03:10:37;;;;;;;2.37;0.95;;;;;;;10.65;57.40;100462.19;4431904;32;34816;-90
2021/05/26 03:13:06;;;;;;;2.42;1.12;;;;;;;10.60;57.76;100463.87;4444144;32;33850;-90
2021/05/26 03:15:34;;;;;;;3.12;1.08;;;;;;;10.60;57.88;100458.66;4444865;32;33960;-89
2021/05/26 03:18:06;;;;;;;3.28;1.25;;;;;;;10.68;57.83;100460.47;4444670;32;33738;-89
2021/05/26 03:20:34;;;;;;;4.87;1.42;;;;;;;10.88;57.32;100463.28;4444708;32;34464;-90
2021/05/26 03:23:03;;;;;;;3.55;1.25;;;;;;;10.84;57.39;100469.28;4432136;32;33821;-89
2021/05/26 03:25:33;;;;;;;3.85;1.27;;;;;;;10.92;57.26;100472.84;4432021;32;33485;-89
2021/05/26 03:28:01;;;;;;;5.37;1.12;;;;;;;10.93;57.41;100476.31;4445822;32;34474;-90
2021/05/26 03:30:29;;;;;;;3.37;1.33;;;;;;;10.90;57.39;100474.56;4444118;32;33027;-90
2021/05/26 03:32:58;;;;;;;2.72;1.33;;;;;;;10.81;57.59;100477.97;4444431;32;33235;-90
2021/05/26 03:35:26;;;;;;;3.62;1.58;;;;;;;10.90;57.68;100479.75;4457533;32;33852;-90
2021/05/26 03:37:55;;;;;;;4.00;1.65;;;;;;;10.82;57.90;100481.41;4444206;32;33842;-90
2021/05/26 03:40:23;;;;;;;5.57;1.50;;;;;;;10.90;57.84;100482.38;4431720;32;33018;-90
2021/05/26 03:42:52;;;;;;;3.17;1.10;;;;;;;10.88;57.80;100486.69;4457514;32;33366;-90
2021/05/26 03:45:21;;;;;;;5.60;1.70;;;;;;;11.10;57.66;100472.97;4444532;32;33388;-90
2021/05/26 03:47:50;;;;;;;2.22;1.50;;;;;;;11.22;57.44;100483.50;4444896;32;34891;-90
2021/05/26 03:50:18;;;;;;;3.75;1.50;;;;;;;11.23;57.60;100473.97;4431491;32;34492;-90
2021/05/26 03:52:47;;;;;;;3.72;1.58;;;;;;;11.39;57.10;100478.41;4444287;32;33676;-90
2021/05/26 03:55:18;;;;;;;6.37;1.98;;;;;;;11.53;56.98;100480.25;4444421;32;33927;-90
2021/05/26 03:57:48;;;;;;;4.35;1.67;;;;;;;11.49;57.08;100475.91;4431969;32;33935;-90
2021/05/26 04:00:20;;;;;;;6.25;1.87;;;;;;;11.40;57.32;100480.19;4431827;32;33356;-90
2021/05/26 04:02:55;;;;;;;2.72;1.67;;;;;;;11.61;56.84;100476.84;4433224;32;32831;-90
2021/05/26 04:05:24;;;;;;;3.70;1.35;;;;;;;11.56;56.76;100475.09;4444706;32;33848;-90
2021/05/26 04:07:52;;;;;;;2.58;1.40;;;;;;;11.71;56.68;100469.12;4456546;32;34880;-90
2021/05/26 04:10:21;;;;;;;4.47;1.90;;;;;;;11.73;56.64;100466.53;4431585;32;33446;-90
2021/05/26 04:12:49;;;;;;;3.17;1.50;;;;;;;11.79;56.42;100471.78;4430856;32;32759;-90
2021/05/26 04:15:19;;;;;;;4.72;1.40;;;;;;;11.71;56.37;100478.69;4444756;32;34252;-89
2021/05/26 04:17:50;;;;;;;5.57;1.27;;;;;;;11.91;56.01;100484.87;4456622;32;33814;-89
2021/05/26 04:20:18;;;;;;;3.45;1.45;;;;;;;11.76;55.99;100485.66;4470967;32;33878;-89
2021/05/26 04:22:47;;;;;;;4.03;1.33;;;;;;;11.95;55.60;100491.84;4453156;32;103271;-90
2021/05/26 04:25:15;;;;;;;5.80;1.77;;;;;;;11.92;55.72;100494.44;4443726;32;34545;-89
2021/05/26 04:27:43;;;;;;;7.18;1.85;;;;;;;12.02;55.89;100491.00;4443735;32;35249;-89
2021/05/26 04:30:12;;;;;;;6.47;1.75;;;;;;;12.12;55.98;100490.19;4455980;32;33551;-89
2021/05/26 04:32:40;;;;;;;3.58;1.62;;;;;;;12.19;55.79;100479.78;4456705;32;33326;-89
2021/05/26 04:35:09;;;;;;;2.53;1.40;;;;;;;12.10;55.02;100484.06;4431014;32;34072;-89
2021/05/26 04:37:37;;;;;;;2.72;1.33;;;;;;;12.26;55.35;100474.59;4431055;32;34851;-89
2021/05/26 04:40:06;;;;;;;3.97;1.37;;;;;;;12.27;55.68;100474.59;4443802;32;34070;-90
2021/05/26 04:42:34;;;;;;;3.00;1.40;;;;;;;12.41;54.92;100467.69;4431480;32;33844;-89
2021/05/26 04:45:02;;;;;;;3.45;1.35;;;;;;;12.50;54.60;100470.34;4457340;32;34038;-91
2021/05/26 04:47:30;;;;;;;4.62;1.20;;;;;;;12.44;55.28;100474.66;4443907;32;34832;-90
2021/05/26 04:49:58;;;;;;;6.53;2.42;;;;;;;12.41;54.97;100472.91;4431198;32;32789;-91
2021/05/26 04:52:26;;;;;;;3.17;1.20;;;;;;;12.46;55.02;100476.41;4430997;32;34378;-91
2021/05/26 04:54:53;;;;;;;5.05;1.55;;;;;;;12.57;54.02;100472.09;4456424;32;35093;-91
2021/05/26 04:57:22;;;;;;;5.20;1.30;;;;;;;12.69;54.16;100469.47;4430893;32;34865;-91
2021/05/26 04:59:49;;;;;;;4.25;1.42;;;;;;;12.76;54.05;100467.78;4443810;32;34057;-91
2021/05/26 05:02:17;;;;;;;5.07;1.67;;;;;;;12.66;54.07;100466.91;4430641;32;33009;-91
2021/05/26 05:04:45;;;;;;;3.47;1.20;;;;;;;12.73;53.41;100468.66;4430689;32;33301;-91
2021/05/26 05:07:13;;;;;;;4.45;1.33;;;;;;;12.71;53.65;100465.16;4456186;32;34417;-91
2021/05/26 05:09:40;;;;;;;3.53;1.00;;;;;;;12.72;54.50;100476.44;4443357;32;34170;-91
2021/05/26 05:12:08;;;;;;;2.58;1.15;;;;;;;12.88;52.85;100473.88;4430545;32;31862;-91
2021/05/26 05:14:36;;;;;;;2.85;1.10;;;;;;;13.02;52.60;100481.75;4455875;32;35043;-91
2021/05/26 05:17:04;;;;;;;4.45;1.00;;;;;;;13.09;52.85;100480.03;4456029;32;35750;-91
2021/05/26 05:19:32;;;;;;;4.75;1.25;;;;;;;12.96;53.68;100483.44;4430638;32;33322;-91
2021/05/26 05:22:01;;;;;;;4.55;1.30;;;;;;;13.16;53.64;100481.75;4443449;32;34185;-90
2021/05/26 05:24:30;;;;;;;2.80;1.10;;;;;;;13.19;53.79;100481.78;4456716;32;33897;-90
2021/05/26 05:26:58;;;;;;;1.67;1.08;;;;;;;13.37;53.34;100477.41;4458162;32;34659;-87
2021/05/26 05:29:25;;;;;;;3.90;1.05;;;;;;;13.60;53.20;100481.75;4458486;32;33966;-90
2021/05/26 05:31:53;;;;;;;2.65;0.95;;;;;;;13.68;51.63;100483.47;4432841;32;32818;-89
2021/05/26 05:34:21;;;;;;;6.03;1.27;;;;;;;13.69;51.57;100480.00;4432843;32;32667;-90
2021/05/26 05:36:49;;;;;;;5.10;1.02;;;;;;;14.03;48.38;100484.22;4458387;32;36021;-90
2021/05/26 05:39:17;;;;;;;1.95;0.90;;;;;;;13.95;49.35;100485.16;4432350;32;33451;-90
2021/05/26 05:41:45;;;;;;;3.85;1.10;;;;;;;14.02;48.97;100482.50;4445343;32;34665;-90
2021/05/26 05:44:13;;;;;;;6.22;1.10;;;;;;;14.22;48.68;100485.03;4432488;32;34314;-90
2021/05/26 05:46:41;;;;;;;3.40;0.90;;;;;;;14.27;54.67;100481.53;4434089;32;34819;-90
2021/05/26 05:49:09;;;;;;;3.10;0.98;;;;;;;14.57;48.45;100484.91;4445626;32;34844;-90
2021/05/26 05:51:36;;;;;;;4.10;0.88;;;;;;;14.57;47.86;100487.53;4445239;32;33707;-89
2021/05/26 05:54:04;;;;;;;2.45;0.90;;;;;;;14.73;48.29;100489.19;4445058;32;33444;-90
2021/05/26 05:56:32;;;;;;;1.92;0.80;;;;;;;14.79;48.12;100483.88;4445201;32;34339;-90
2021/05/26 05:59:00;;;;;;;3.30;0.85;;;;;;;14.90;47.08;100482.09;4458413;32;34603;-90
2021/05/26 06:01:27;;;;;;;3.97;1.12;;;;;;;15.10;46.17;100481.91;4445746;32;34163;-90
2021/05/26 06:03:55;;;;;;;3.70;0.95;;;;;;;15.29;44.64;100481.75;4458621;32;34386;-90
2021/05/26 06:06:23;;;;;;;4.70;1.02;;;;;;;15.38;44.73;100493.94;4445327;32;35789;-90
2021/05/26 06:08:51;;;;;;;1.62;0.82;;;;;;;15.43;44.34;100498.22;4445116;32;34155;-88
2021/05/26 06:11:19;;;;;;;2.90;1.25;;;;;;;15.42;45.26;100496.50;4444667;32;32836;-89
2021/05/26 06:13:49;;;;;;;8.00;1.85;;;;;;;15.79;44.34;100494.44;4457794;32;33921;-88
2021/05/26 06:16:17;;;;;;;2.97;0.80;;;;;;;15.59;46.65;100494.63;4445080;32;34290;-89
2021/05/26 06:18:45;;;;;;;2.87;0.90;;;;;;;15.98;43.31;100492.47;4444856;32;34012;-89
2021/05/26 06:21:12;;;;;;;2.22;0.60;;;;;;;15.99;44.22;100494.22;4457571;32;33828;-89
2021/05/26 06:23:41;;;;;;;4.40;0.90;;;;;;;16.20;41.43;100492.22;4444957;32;33678;-89
2021/05/26 06:26:09;;;;;;;2.22;0.90;;;;;;;16.37;42.21;100488.50;4419512;32;33616;-88
2021/05/26 06:28:36;;;;;;;4.93;0.85;;;;;;;16.44;42.13;100485.78;4444799;32;33424;-88
2021/05/26 06:31:04;;;;;;;3.62;1.08;;;;;;;16.49;43.10;100483.09;4444527;32;34202;-86
2021/05/26 06:33:32;;;;;;;2.87;0.70;;;;;;;16.63;40.44;100486.44;4457648;32;34501;-88
2021/05/26 06:36:00;;;;;;;2.22;0.80;;;;;;;16.98;39.58;100483.28;4444011;32;33513;-88
2021/05/26 06:38:28;;;;;;;2.42;1.08;;;;;;;16.94;40.31;100477.22;4457229;32;34733;-89
2021/05/26 06:40:56;;;;;;;1.52;0.60;;;;;;;17.04;42.86;100480.59;4432075;32;34005;-88
2021/05/26 06:43:23;;;;;;;2.22;0.70;;;;;;;17.29;42.15;100472.28;4457319;32;34613;-89
2021/05/26 06:45:51;;;;;;;2.15;0.80;;;;;;;17.21;41.75;100476.78;4444525;32;34508;-89
2021/05/26 06:48:19;;;;;;;2.03;0.62;;;;;;;17.59;41.04;100473.50;4471146;32;34037;-89
2021/05/26 06:50:47;;;;;;;4.50;0.90;;;;;;;18.03;38.25;100472.69;4440821;32;33029;-87
2021/05/26 06:53:14;;;;;;;3.20;1.00;;;;;;;18.17;38.86;100471.53;4443937;32;33858;-88
2021/05/26 06:55:43;;;;;;;2.35;0.70;;;;;;;18.20;39.01;100463.56;4447263;32;34433;-87
2021/05/26 06:58:11;;;;;;;3.25;0.80;;;;;;;18.47;38.46;100456.00;4444508;32;35414;-87
2021/05/26 07:00:38;;;;;;;3.08;0.93;;;;;;;18.52;39.42;100460.25;4471250;32;33324;-88
2021/05/26 07:03:06;;;;;;;1.95;0.65;;;;;;;18.82;38.55;100453.44;4465915;32;35022;-87
2021/05/26 07:05:34;;;;;;;1.60;0.50;;;;;;;19.06;36.96;100459.91;4472704;32;35248;-87
2021/05/26 07:08:03;;;;;;;2.28;0.70;;;;;;;19.29;35.63;100449.63;4460311;32;34024;-87
2021/05/26 07:10:31;;;;;;;2.87;0.70;;;;;;;19.57;35.58;100456.84;4487305;32;33728;-87
2021/05/26 07:12:59;;;;;;;4.93;1.40;;;;;;;19.75;34.66;100444.06;4460037;32;33390;-88
2021/05/26 07:15:26;;;;;;;1.50;0.60;;;;;;;19.78;34.03;100447.47;4448068;32;34331;-87
2021/05/26 07:17:56;;;;;;;4.07;0.77;;;;;;;19.88;33.49;100440.16;4444514;32;33918;-87
2021/05/26 07:20:23;;;;;;;1.23;0.60;;;;;;;20.30;32.43;100436.31;4471182;32;33430;-87
2021/05/26 07:22:51;;;;;;;4.00;0.85;;;;;;;20.12;33.58;100442.97;4443700;32;33375;-87
2021/05/26 07:25:20;;;;;;;3.80;0.80;;;;;;;20.35;33.92;100434.41;4467188;32;34176;-86
2021/05/26 07:27:47;;;;;;;1.77;0.50;;;;;;;20.44;33.08;100441.22;4459931;32;34689;-87
2021/05/26 07:30:17;;;;;;;3.75;0.80;;;;;;;20.75;32.00;100445.47;4459811;32;33598;-87
2021/05/26 07:32:45;;;;;;;1.58;0.32;;;;;;;20.56;31.19;100441.69;4472848;32;33894;-87
2021/05/26 07:35:13;;;;;;;2.53;0.55;;;;;;;20.73;31.73;100451.72;4472445;32;34398;-86
2021/05/26 07:37:41;;;;;;;0.95;0.50;;;;;;;20.90;30.65;100452.94;4459666;32;33561;-88
2021/05/26 07:40:11;;;;;;;4.40;0.60;;;;;;;21.17;31.65;100460.94;4472580;32;34015;-87
2021/05/26 07:42:39;;;;;;;1.83;0.70;;;;;;;21.05;31.87;100451.63;4472702;32;35214;-87
2021/05/26 07:45:09;;;;;;;0.85;0.50;;;;;;;21.35;28.84;100455.00;4453167;32;33922;-87
2021/05/26 07:47:37;;;;;;;2.75;0.55;;;;;;;21.25;28.83;100450.97;4428056;32;34762;-86
2021/05/26 07:50:05;;;;;;;2.85;0.50;;;;;;;20.87;32.05;100453.03;4461240;32;33298;-86
2021/05/26 07:52:33;;;;;;;4.50;0.70;;;;;;;21.00;31.63;100452.62;4443939;32;33736;-86
2021/05/26 07:55:03;;;;;;;2.37;0.50;;;;;;;21.15;29.65;100445.12;4428195;32;35361;-87
2021/05/26 07:57:30;;;;;;;1.65;0.50;;;;;;;21.22;30.43;100451.94;4428448;32;34612;-86
2021/05/26 07:59:58;;;;;;;2.67;0.73;;;;;;;21.28;29.98;100448.19;4441422;32;33016;-87
2021/05/26 08:02:27;;;;;;;2.28;0.98;;;;;;;21.31;30.84;100446.34;4428584;32;33448;-87
2021/05/26 08:04:55;;;;;;;3.20;0.80;;;;;;;21.23;32.87;100443.06;4428604;32;34497;-86
2021/05/26 08:07:22;;;;;;;2.42;0.50;;;;;;;21.34;31.45;100437.44;4441271;32;35187;-86
2021/05/26 08:09:50;;;;;;;2.15;0.55;;;;;;;21.62;31.58;100439.97;4428509;32;33418;-87
2021/05/26 08:12:18;;;;;;;1.83;0.82;;;;;;;21.67;31.32;100436.25;4441145;32;35223;-87
2021/05/26 08:14:45;;;;;;;1.90;0.57;;;;;;;21.27;30.86;100431.50;4416573;32;35312;-86
2021/05/26 08:17:13;;;;;;;2.17;0.70;;;;;;;21.68;30.57;100432.66;4456696;32;34068;-86
2021/05/26 08:19:41;;;;;;;2.22;0.55;;;;;;;21.73;29.92;100430.72;4443676;32;33163;-86
2021/05/26 08:22:08;;;;;;;3.15;0.80;;;;;;;21.88;29.89;100427.56;4440784;32;34719;-86
2021/05/26 08:24:36;;;;;;;3.95;0.60;;;;;;;22.18;29.52;100429.09;4453859;32;34388;-87
2021/05/26 08:27:03;;;;;;;2.35;0.90;;;;;;;21.97;30.20;100419.28;4454803;32;34747;-87
2021/05/26 08:29:33;;;;;;;6.75;0.90;;;;;;;22.01;31.23;100426.19;4453581;32;33232;-87
2021/05/26 08:32:02;;;;;;;2.25;1.00;;;;;;;22.10;32.20;100419.69;4428555;32;34266;-88
2021/05/26 08:34:29;;;;;;;3.92;1.00;;;;;;;22.09;32.41;100423.25;4440425;32;35773;-88
2021/05/26 08:36:57;;;;;;;5.05;0.75;;;;;;;22.21;32.63;100417.50;4440573;32;35071;-88
2021/05/26 08:39:24;;;;;;;3.75;0.62;;;;;;;21.93;33.39;100420.31;4453198;32;33984;-88
2021/05/26 08:41:53;;;;;;;3.72;0.93;;;;;;;21.40;34.91;100416.03;4440297;32;34434;-89
2021/05/26 08:44:22;;;;;;;4.43;1.08;;;;;;;21.96;33.24;100414.06;4440082;32;33785;-89
2021/05/26 08:46:53;;;;;;;3.05;0.80;;;;;;;22.20;32.25;100411.34;4440073;32;34630;-88
2021/05/26 08:49:21;;;;;;;6.28;1.20;;;;;;;22.49;30.52;100418.16;4454524;32;33325;-87
2021/05/26 08:51:49;;;;;;;1.95;0.90;;;;;;;21.90;31.74;100407.19;4442903;32;34313;-88
2021/05/26 08:54:17;;;;;;;3.08;0.75;;;;;;;22.20;31.10;100410.50;4442567;32;35514;-88
2021/05/26 08:56:45;;;;;;;4.85;0.95;;;;;;;22.42;29.79;100405.22;4442624;32;34060;-87
2021/05/26 08:59:17;;;;;;;5.62;0.93;;;;;;;22.44;30.15;100398.09;4442177;32;33374;-86
2021/05/26 09:01:48;;;;;;;5.50;0.90;;;;;;;22.43;29.82;100399.00;4454852;32;34300;-88
2021/05/26 09:04:29;;;;;;;3.05;0.85;;;;;;;22.37;30.29;100401.91;4429409;32;35750;-87
2021/05/26 09:07:09;;;;;;;2.27;0.77;;;;;;;22.46;29.91;100401.53;4456061;32;34005;-89
2021/05/26 09:09:58;;;;;;;3.28;1.00;;;;;;;22.51;29.66;100400.41;4429516;32;32796;-89
2021/05/26 09:12:33;;;;;;;3.10;0.80;;;;;;;22.61;29.75;100390.34;4442367;32;33411;-88
2021/05/26 09:15:20;;;;;;;1.73;0.80;;;;;;;22.80;29.70;100389.53;4457582;32;34853;-88
2021/05/26 09:17:56;;;;;;;1.75;0.50;;;;;;;22.95;28.90;100385.41;4440392;32;34669;-88
2021/05/26 09:20:29;;;;;;;3.10;0.68;;;;;;;23.06;28.66;100385.81;4439594;32;33253;-88
2021/05/26 09:23:00;;;;;;;2.40;0.60;;;;;;;22.84;30.47;100377.88;4444563;32;33979;-88
2021/05/26 09:25:29;;;;;;;3.78;0.85;;;;;;;22.75;29.51;100369.44;4445088;32;35566;-88
2021/05/26 09:28:22;;;;;;;1.73;0.70;;;;;;;23.01;29.00;100377.19;4444860;32;33649;-88
2021/05/26 09:30:56;;;;;;;4.37;0.95;;;;;;;23.13;28.22;100373.16;4453136;32;35216;-88
2021/05/26 09:33:39;;;;;;;2.97;1.00;;;;;;;23.07;28.49;100366.31;4429491;32;33851;-88
2021/05/26 09:36:20;;;;;;;1.98;0.85;;;;;;;23.29;28.15;100363.63;4442239;32;36054;-89
2021/05/26 09:38:59;;;;;;;4.07;0.90;;;;;;;23.02;28.75;100363.00;4429572;32;34612;-89
2021/05/26 09:41:31;;;;;;;2.00;0.73;;;;;;;22.96;28.66;100357.97;4429888;32;33650;-87
2021/05/26 09:43:59;;;;;;;2.85;1.33;;;;;;;23.02;28.62;100354.16;4416456;32;33336;-87
2021/05/26 09:46:27;;;;;;;3.87;1.08;;;;;;;23.13;28.18;100352.78;4438326;32;35281;-86
2021/05/26 09:49:19;;;;;;;2.33;0.82;;;;;;;23.05;28.32;100349.59;4454808;32;34400;-88
2021/05/26 09:51:55;;;;;;;3.90;0.85;;;;;;;23.17;27.98;100343.78;4442194;32;34077;-87
2021/05/26 09:54:29;;;;;;;2.67;0.70;;;;;;;23.05;29.57;100346.97;4429835;32;34755;-88
2021/05/26 09:57:03;;;;;;;5.78;1.00;;;;;;;22.90;30.70;100336.97;4442087;32;35262;-87
2021/05/26 09:59:32;;;;;;;2.03;0.60;;;;;;;22.79;30.71;100341.87;4441803;32;34963;-87
2021/05/26 10:02:06;;;;;;;1.90;0.80;;;;;;;23.07;28.83;100337.12;4434996;32;33351;-87
2021/05/26 10:04:34;;;;;;;4.20;1.02;;;;;;;23.20;28.10;100337.47;4454394;32;33829;-88
2021/05/26 10:07:21;;;;;;;1.73;0.90;;;;;;;23.23;27.65;100337.31;4444112;32;33824;-87
2021/05/26 10:09:50;;;;;;;3.83;1.10;;;;;;;23.42;27.98;100328.53;4442316;32;34047;-87
2021/05/26 10:12:19;;;;;;;3.12;0.90;;;;;;;23.05;28.99;100322.22;4458042;32;33259;-88
2021/05/26 10:14:47;;;;;;;2.75;0.77;;;;;;;23.10;29.30;100325.53;4445371;32;33952;-88
2021/05/26 10:17:20;;;;;;;3.37;1.02;;;;;;;22.80;29.59;100309.97;4447207;32;35312;-89
2021/05/26 10:19:49;;;;;;;2.20;1.10;;;;;;;22.94;29.46;100309.38;4458274;32;35186;-88
2021/05/26 10:22:17;;;;;;;4.35;1.15;;;;;;;23.03;27.73;100301.06;4442853;32;34589;-90
2021/05/26 10:24:45;;;;;;;5.47;1.05;;;;;;;23.00;28.05;100306.50;4462468;32;34227;-89
2021/05/26 10:27:32;;;;;;;2.47;1.05;;;;;;;22.83;29.86;100307.22;4437168;32;34083;-87
2021/05/26 10:30:02;;;;;;;5.82;1.20;;;;;;;23.30;26.49;100306.94;4462394;32;34309;-88
2021/05/26 10:33:02;;;;;;;2.40;1.08;;;;;;;23.29;26.75;100292.84;4450036;32;34533;-88
2021/05/26 10:35:32;;;;;;;1.73;0.98;;;;;;;23.50;25.88;100289.25;4437114;32;33421;-87
2021/05/26 10:38:09;;;;;;;4.22;0.93;;;;;;;23.54;27.72;100285.50;4450024;32;33840;-89
2021/05/26 10:40:43;;;;;;;3.53;0.82;;;;;;;23.51;25.61;100293.59;4449369;32;33389;-89
2021/05/26 10:43:15;;;;;;;2.05;0.95;;;;;;;22.81;28.41;100297.59;4477126;32;33802;-88
2021/05/26 10:45:43;;;;;;;;;;;;;;;23.10;26.39;100281.31;4463393;32;34172;-87
2021/05/26 10:48:11;;;;;;;3.30;0.70;;;;;;;23.26;26.36;100286.78;4450281;32;35212;-88
2021/05/26 10:50:57;;;;;;;2.70;0.85;;;;;;;23.46;25.57;100276.19;4449568;32;34340;-88
2021/05/26 10:53:36;;;;;;;2.67;0.88;;;;;;;23.57;27.24;100273.88;4448606;32;33401;-89
2021/05/26 10:56:04;;;;;;;3.92;1.00;;;;;;;23.52;27.05;100282.06;4449208;32;34412;-88
2021/05/26 10:58:42;;;;;;;3.50;0.90;;;;;;;23.45;28.73;100269.12;4449732;32;34658;-88
2021/05/26 11:01:12;;;;;;;4.95;1.10;;;;;;;23.43;29.69;100273.66;4461468;32;34446;-87
2021/05/26 11:03:43;;;;;;;5.00;0.88;;;;;;;23.43;29.93;100269.22;4460068;32;33430;-87
2021/05/26 11:06:17;;;;;;;2.70;1.05;;;;;;;23.58;28.33;100258.81;4444548;32;33362;-86
2021/05/26 11:08:51;;;;;;;2.10;0.80;;;;;;;23.69;27.83;100265.38;4457442;32;34416;-88
2021/05/26 11:11:25;;;;;;;2.33;0.82;;;;;;;23.53;28.65;100261.69;4444858;32;34207;-86
2021/05/26 11:14:06;;;;;;;1.65;0.93;;;;;;;23.53;28.94;100264.34;4471499;32;33416;-87
2021/05/26 11:16:40;;;;;;;3.53;1.00;;;;;;;23.47;28.66;100254.88;4457172;32;33903;-87
2021/05/26 11:19:13;;;;;;;3.22;0.80;;;;;;;23.28;29.36;100248.62;4471250;32;35296;-88
2021/05/26 11:21:57;;;;;;;3.33;1.10;;;;;;;23.21;30.28;100239.22;4441995;32;34114;-87
2021/05/26 11:24:26;;;;;;;3.10;1.00;;;;;;;23.39;27.24;100248.19;4454593;32;33931;-87
2021/05/26 11:26:53;;;;;;;3.83;0.90;;;;;;;23.50;26.90;100244.13;4456786;32;33653;-86
2021/05/26 11:29:28;;;;;;;3.45;0.93;;;;;;;23.60;27.78;100233.94;4457056;32;35271;-87
2021/05/26 11:32:09;;;;;;;3.35;0.88;;;;;;;23.73;27.85;100232.41;4444141;32;34657;-87
2021/05/26 11:34:37;;;;;;;4.12;1.20;;;;;;;23.76;27.98;100226.09;4457166;32;34433;-86
2021/05/26 11:37:06;;;;;;;5.87;1.42;;;;;;;23.76;27.24;100237.59;4444191;32;33497;-88
2021/05/26 11:39:35;;;;;;;4.82;1.10;;;;;;;23.76;27.33;100228.75;4431997;32;33800;-88